Logo AVAMET Logo AVAMET
Benvolgut visitant, si us plau, ingressa Recuperar contrasenya
AVAMET paisatges
Union Alcoyana

Xàbia Alt de la Granadella

Dades diàries. Acumulats / Últims 30 dies disponibles

Data Temperatura (°C) Humitat rel. (%) Pressió rel. (hPa) Vent (km/h) Precipitació
Mínima Mitjana Màxima Amplitud
tèrmica
Mínima Mitjana Màxima Mínima Mitjana Màxima Predom. Mitjana Ràfega
màxima
Total
(mm)
Índex-n
Mínima Mitjana Màxima Mínima Mitjana Màxima n
0 a 1
P0 max
mm 5'
Dades mensuals acumulades fins l'últim dia disponible
04/2024 8,8 11,3 15,3 15,9 16,4 20,3 23,6 14,8 27 64 98 1.002 1.016 1.028   14,9 70,3 0,0
Dades anuals acumulades fins l'últim dia disponible
2024 2,8 9,1 15,3 13,7 10,9 17,4 26,2 23,4 22 66 99 981 1.011 1.029   17,0 88,8 21,6
Últims 30 dies disponibles
18-04-2024 9,5     14,3     18,4 8,9 73 84 95 1.011 1.012 1.016 S 7,9 25,9 0,0
17-04-2024 11,3     14,8     18,7 7,4 44 71 98 1.010 1.011 1.013 ENE 10,5 27,8 0,0
16-04-2024 12,5     16,6     20,4 7,9 39 68 96 1.009 1.011 1.014 SSE 11,7 38,9 0,0
15-04-2024 15,3     19,5     23,6 8,3 27 56 85 1.013 1.015 1.019 S 16,1 40,7 0,0
14-04-2024 14,4     19,1     23,6 9,2 27 43 58 1.018 1.020 1.023 SSO 9,2 29,6 0,0
13-04-2024 12,6     18,0     22,4 9,8 32 49 65 1.021 1.023 1.026 O 7,7 27,8 0,0
12-04-2024 11,4     16,2     20,0 8,6 41 64 86 1.025 1.026 1.028 NO 10,1 25,9 0,0
11-04-2024 10,5     14,5     18,7 8,2 52 70 87 1.021 1.024 1.027 NNO 11,0 31,4 0,0
10-04-2024 9,9     14,3     17,7 7,8 34 58 81 1.020 1.023 1.025 S 16,2 51,8 0,0
09-04-2024 10,3     15,2     20,8 10,5 30 47 64 1.010 1.018 1.025 NO 23,5 70,3 0,0
08-04-2024 13,2     17,4     23,3 10,1 43 68 93 1.006 1.007 1.010 SO 20,2 55,5 0,0
07-04-2024 11,1     15,9     21,4 10,3 65 81 96 1.009 1.011 1.014 ONO 17,1 46,3 0,0
06-04-2024 10,4     14,3     18,3 7,9 74 86 98 1.012 1.014 1.016 NO 21,1 53,6 0,0
05-04-2024 10,8     15,6     19,9 9,1 44 71 97 1.013 1.015 1.017 S 14,9 44,4 0,0
04-04-2024 11,0     17,0     22,0 11,0 41 69 97 1.014 1.015 1.017 S 18,8 48,1 0,0
03-04-2024 11,1     16,6     20,9 9,8 45 62 79 1.013 1.015 1.017 S 17,6 44,4 0,0
02-04-2024 9,9     14,4     18,8 8,9 35 58 81 1.013 1.015 1.018 S 16,4 44,4 0,0
01-04-2024 8,8     13,3     16,4 7,6 43 58 72 1.002 1.009 1.015 SSO 18,1 61,0 0,0
31-03-2024 8,3     11,9     17,4 9,1 47 70 93 993 996 1.002 S 23,9 59,2 2,0 0,18 0,50
30-03-2024 8,7     11,8     16,1 7,4 48 70 91 992 995 997 S 28,7 85,1 0,0
29-03-2024 10,4     14,7     18,2 7,8 50 71 92 991 996 999 S 28,4 59,2 0,0
28-03-2024 11,7     15,4     19,1 7,4 60 73 86 996 1.000 1.003 S 26,2 74,0 0,0
27-03-2024 7,5     13,4     17,2 9,7 44 64 83 993 996 997 SSO 32,2 77,7 0,0
26-03-2024 7,3     12,7     16,4 9,1 34 67 99 988 991 994 SSO 17,5 61,0 0,3
25-03-2024 9,6     12,8     14,3 4,7 91 95 99 990 998 1.006 S 13,5 51,8 1,8
24-03-2024 10,2     13,2     15,1 4,9 80 87 94 1.006 1.011 1.014 NNO 16,7 46,3 0,0
23-03-2024 11,6     14,9     19,2 7,6 50 69 87 1.013 1.014 1.017 NO 9,9 25,9 0,0
22-03-2024 10,9     15,4     21,0 10,1 44 67 90 1.014 1.016 1.019 NO 14,2 38,9 0,0
21-03-2024 10,4     13,4     14,7 4,3 85 92 98 1.014 1.018 1.020 NNO 34,2 68,5 0,0
20-03-2024 9,7     13,7     16,4 6,7 78 89 99 1.011 1.013 1.016 NNO 23,5 53,6 0,0
Últims 13 mesos disponibles
03/2024 4,9 8,9 12,1 13,4 13,9 17,1 21,7 16,8 42 70 95 991 1.008 1.020 S 19,6 88,8 6,1
02/2024 6,5 8,7 12,8 13,3 13,6 17,0 21,8 15,3 39 65 87 987 1.010 1.024 S 17,3 79,5 6,3
01/2024 2,8 8,3 14,8 13,0 10,9 16,4 26,2 23,4 35 65 92 997 1.013 1.026 S 15,4 87,0 9,2
12/2023 5,1 8,2 14,7 12,8 11,7 16,4 24,7 19,6 43 65 88 992 1.013 1.027 SSO 14,3 85,1 4,0
11/2023 7,7 11,8 16,6 16,2 15,6 20,2 25,5 17,8 41 62 91 995 1.007 1.017 S 16,1 107,3 0,0
10/2023 12,3 17,2 20,8 20,6 19,8 24,1 28,3 16,0 51 71 87 989 1.006 1.017 S 13,3 90,7 1,8
09/2023 17,4 19,7 23,3 23,0 24,0 26,0 27,9 10,5 63 80 95 1.010 1.014 1.025 S 12,1 62,9 53,9
08/2023 17,3 23,0 25,3 25,8 26,4 29,3 35,5 18,2 44 77 88 1.008 1.013 1.018 S 14,3 74,0 7,4
07/2023 21,5 23,9 25,7 26,2 26,9 29,8 35,3 13,8 76 84 90 1.005 1.010 1.015 SSE 14,7 88,8 9,4
06/2023 16,9 20,3 23,9 22,9 20,3 26,1 31,2 14,3 49 75 89 1.003 1.008 1.016 S 13,5 75,9 6,9
05/2023 12,0 15,7 17,7 18,0 18,1 21,0 23,5 11,5 46 75 92 1.005 1.010 1.020 S 13,1 70,3 57,9
04/2023 9,4 13,6 17,4 16,6 16,7 20,5 29,9 20,5 41 73 91 990 1.004 1.018 S 9,0 92,5 0,0
03/2023 2,5 11,9 19,1 15,5 10,5 19,6 27,9 25,4 37 66 89 993 1.000 1.008 OSO 4,3 92,5 6,9
Tots els anys disponibles
2023 2,5 15,2 25,7 18,3 8,0 21,8 35,5 33,0 37 72 95 984 1.008 1.027 S 12,8 107,3 210,3
2022 5,6 16,2 29,3 18,7 10,1 21,9 37,0 31,4 42 74 98 984 1.013 1.031 S 14,4 94,4 483,5
2021 4,1 11,5 20,8 17,7 20,9 26,8 34,3 30,2 66 76 81 1.012 1.014 1.018 S 15,3 105,5 599,6
2020 0,1 14,8 25,1 18,1 11,2 21,7 32,1 32,0 35 75 96 995 1.015 1.029 S 12,4 131,3 430,5
Temperatura (°C)
Humitat relativa (%)
Velocitat del vent i ràfega màxima (km/h)
Direcció del vent (°)
Pressió (hPa)
Precipitació (mm)
Nota sobre les dades: s'avisa a l'usuari de la provisionalitat i no oficialitat d'aquestes dades
Logo AVAMET blanc
Web allotjada a Sollutia
Llicència de Creative CommonsLa web d'AVAMET i els seus continguts estan subjectes a una llicència de
Reconeixement - No Comercial - Compartir igual
Avís legal - Política de privacitat - Política de cookies - Canviar configuració privacitat
NOVES ESTACIONS: Sella - Tagarina/El Volador (Soci), Quart de Poblet - los Hornillos (Soci), Buñol - Partior (Soci), la Pobla de Farnals - Platja (Ajuntament/Soci), la Pobla de Farnals (Ajuntament/Soci), Calp (Ajuntament(Soci),  Carlet (Ajuntament/Soci), l'Alcora - la Foia (Ajuntament/Soci), Sant Vicent del Raspeig - las Ocas (Soci), Alcoi - IES Cotes Baixes (Soci), San Antonio de Benagéber - CELSAB (Soci), la Todolella (Ajuntament/Soci), Artana - Caseta de les Creus (Soci), Suera - Res. Espadà (Soci), Onda - Col·legi Virgen del Carmen (Soci), Catarroja - Col·legi Larrodé (Soci), València - Patraix (Soci), Ontinyent - Torre de Torús (Soci), Requena - El Rebollar (Casa Ejarque) (Soci), Elx - la Foia (Soci), Onda - el Salvador (Ajuntament/Soci), Paiporta (Ajuntament/Soci) - - -